createdAt,value
2022-08-25T00:01:47.589Z,24.02
2022-08-25T00:04:15.051Z,24.04
2022-08-25T00:06:43.141Z,23.94
2022-08-25T00:09:11.127Z,23.90
2022-08-25T00:11:39.504Z,23.82
2022-08-25T00:14:12.915Z,23.84
2022-08-25T00:16:39.596Z,23.86
2022-08-25T00:19:09.454Z,23.85
2022-08-25T00:21:36.116Z,23.85
2022-08-25T00:24:03.001Z,23.90
2022-08-25T00:26:29.928Z,23.78
2022-08-25T00:29:01.992Z,23.79
2022-08-25T00:31:38.669Z,23.66
2022-08-25T00:34:08.772Z,23.77
2022-08-25T00:36:35.554Z,23.80
2022-08-25T00:39:02.011Z,23.65
2022-08-25T00:41:28.827Z,23.76
2022-08-25T00:44:00.034Z,24.03
2022-08-25T00:46:31.466Z,24.00
2022-08-25T00:49:01.468Z,24.02
2022-08-25T00:51:33.607Z,23.95
2022-08-25T00:54:00.750Z,24.00
2022-08-25T00:56:27.692Z,23.91
2022-08-25T00:58:54.189Z,23.84
2022-08-25T01:01:20.673Z,23.79
2022-08-25T01:03:47.291Z,23.77
2022-08-25T01:06:14.190Z,23.93
2022-08-25T01:08:40.666Z,23.92
2022-08-25T01:11:10.014Z,23.92
2022-08-25T01:13:47.579Z,23.79
2022-08-25T01:16:15.511Z,23.77
2022-08-25T01:18:53.269Z,23.76
2022-08-25T01:21:21.814Z,23.57
2022-08-25T01:23:49.643Z,23.64
2022-08-25T01:26:26.145Z,23.58
2022-08-25T01:29:18.043Z,23.48
2022-08-25T01:31:45.124Z,23.33
2022-08-25T01:34:15.573Z,23.31
2022-08-25T01:36:43.785Z,23.25
2022-08-25T01:39:11.079Z,23.13
2022-08-25T01:41:51.302Z,23.20
2022-08-25T01:44:18.487Z,23.12
2022-08-25T01:46:45.005Z,22.94
2022-08-25T01:49:11.509Z,22.89
2022-08-25T01:51:42.788Z,22.99
2022-08-25T01:54:09.310Z,22.92
2022-08-25T01:56:35.841Z,22.76
2022-08-25T01:59:02.262Z,22.90
2022-08-25T02:01:28.749Z,22.76
2022-08-25T02:03:56.586Z,22.96
2022-08-25T02:06:29.967Z,22.83
2022-08-25T02:08:59.270Z,22.69
2022-08-25T02:11:25.765Z,22.69
2022-08-25T02:13:54.991Z,22.56
2022-08-25T02:16:25.362Z,22.63
2022-08-25T02:18:53.000Z,22.61
2022-08-25T02:21:19.448Z,22.53
2022-08-25T02:23:45.908Z,22.51
2022-08-25T02:26:16.616Z,22.57
2022-08-25T02:28:44.676Z,22.59
2022-08-25T02:31:11.281Z,22.64
2022-08-25T02:33:37.873Z,22.42
2022-08-25T02:36:05.061Z,22.54
2022-08-25T02:38:31.950Z,22.53
2022-08-25T02:40:59.155Z,22.45
2022-08-25T02:43:26.280Z,22.46
2022-08-25T02:45:53.321Z,22.62
2022-08-25T02:48:19.921Z,22.47
2022-08-25T02:50:48.081Z,22.37
2022-08-25T02:53:14.523Z,22.46
2022-08-25T02:55:40.941Z,22.48
2022-08-25T02:58:09.055Z,22.36
2022-08-25T03:00:35.509Z,22.46
2022-08-25T03:03:02.780Z,22.46
2022-08-25T03:05:29.210Z,22.46
2022-08-25T03:07:56.186Z,22.47
2022-08-25T03:10:24.298Z,22.37
2022-08-25T03:12:50.736Z,22.42
2022-08-25T03:15:18.103Z,22.38
2022-08-25T03:17:46.019Z,22.38
2022-08-25T03:20:12.900Z,22.39
2022-08-25T03:22:39.359Z,22.33
2022-08-25T03:25:25.023Z,22.32
2022-08-25T03:27:52.013Z,22.35
2022-08-25T03:30:19.278Z,22.23
2022-08-25T03:32:45.795Z,22.23
2022-08-25T03:35:12.644Z,22.51
2022-08-25T03:37:39.481Z,22.55
2022-08-25T03:40:09.483Z,22.58
2022-08-25T03:42:45.833Z,22.60
2022-08-25T03:45:13.782Z,22.62
2022-08-25T03:47:40.897Z,22.64
2022-08-25T03:50:09.899Z,22.53
2022-08-25T03:52:42.253Z,22.64
2022-08-25T03:55:10.932Z,22.74
2022-08-25T03:57:38.176Z,22.70
2022-08-25T04:00:08.052Z,22.70
2022-08-25T04:02:34.545Z,22.62
2022-08-25T04:05:01.641Z,22.53
2022-08-25T04:07:28.104Z,22.66
2022-08-25T04:09:55.935Z,22.62
2022-08-25T04:12:22.717Z,22.68
2022-08-25T04:14:49.283Z,22.63
2022-08-25T04:17:16.064Z,22.73
2022-08-25T04:19:42.527Z,22.63
2022-08-25T04:22:08.969Z,22.61
2022-08-25T04:24:35.369Z,22.53
2022-08-25T04:27:01.805Z,22.44
2022-08-25T04:29:28.206Z,22.47
2022-08-25T04:31:55.187Z,22.55
2022-08-25T04:34:30.351Z,22.60
2022-08-25T04:36:59.471Z,22.57
2022-08-25T04:39:25.929Z,22.67
2022-08-25T04:41:52.431Z,22.67
2022-08-25T04:44:19.078Z,22.57
2022-08-25T04:46:45.570Z,22.57
2022-08-25T04:49:12.222Z,22.54
2022-08-25T04:51:39.992Z,22.65
2022-08-25T04:54:10.083Z,22.68
2022-08-25T04:56:36.670Z,22.82
2022-08-25T04:59:08.816Z,22.74
2022-08-25T05:01:35.917Z,22.73
2022-08-25T05:04:04.645Z,22.89
2022-08-25T05:06:31.417Z,22.94
2022-08-25T05:08:58.841Z,23.05
2022-08-25T05:11:26.244Z,22.95
2022-08-25T05:13:55.161Z,23.10
2022-08-25T05:16:22.682Z,23.20
2022-08-25T05:18:50.053Z,23.31
2022-08-25T05:21:21.301Z,23.30
2022-08-25T05:23:48.631Z,23.34
2022-08-25T05:26:21.188Z,23.40
2022-08-25T05:28:50.548Z,23.47
2022-08-25T05:31:17.475Z,23.50
2022-08-25T05:33:44.725Z,23.50
2022-08-25T05:36:12.760Z,23.60
2022-08-25T05:38:41.008Z,23.63
2022-08-25T05:41:10.514Z,23.78
2022-08-25T05:43:38.245Z,23.83
2022-08-25T05:46:04.783Z,23.90
2022-08-25T05:48:31.618Z,23.99
2022-08-25T05:51:00.738Z,24.15
2022-08-25T05:53:28.447Z,24.14
2022-08-25T05:55:59.135Z,24.18
2022-08-25T05:58:28.293Z,24.25
2022-08-25T06:00:55.628Z,24.32
2022-08-25T06:03:22.204Z,24.28
2022-08-25T06:05:48.899Z,24.35
2022-08-25T06:08:16.283Z,24.21
2022-08-25T06:10:42.906Z,24.32
2022-08-25T06:13:09.355Z,24.44
2022-08-25T06:15:36.055Z,24.56
2022-08-25T06:18:03.422Z,24.61
2022-08-25T06:20:31.273Z,24.62
2022-08-25T06:22:58.322Z,24.67
2022-08-25T06:25:25.936Z,24.70
2022-08-25T06:27:53.918Z,24.67
2022-08-25T06:30:28.435Z,24.68
2022-08-25T06:32:55.894Z,24.77
2022-08-25T06:35:22.828Z,24.98
2022-08-25T06:37:49.320Z,24.80
2022-08-25T06:40:16.463Z,24.97
2022-08-25T06:42:43.084Z,25.15
2022-08-25T06:45:10.153Z,25.23
2022-08-25T06:47:36.598Z,25.34
2022-08-25T06:50:04.538Z,25.43
2022-08-25T06:52:31.594Z,25.55
2022-08-25T06:54:58.043Z,25.61
2022-08-25T06:57:24.665Z,25.73
2022-08-25T06:59:53.676Z,26.08
2022-08-25T07:02:22.191Z,26.14
2022-08-25T07:04:49.154Z,26.17
2022-08-25T07:07:15.608Z,26.22
2022-08-25T07:09:42.030Z,26.22
2022-08-25T07:12:08.686Z,26.56
2022-08-25T07:14:36.382Z,26.82
2022-08-25T07:17:03.345Z,26.86
2022-08-25T07:19:37.928Z,27.07
2022-08-25T07:22:04.534Z,27.52
2022-08-25T07:24:30.986Z,27.65
2022-08-25T07:26:57.511Z,27.80
2022-08-25T07:29:32.586Z,27.91
2022-08-25T07:32:01.377Z,27.93
2022-08-25T07:34:52.193Z,28.04
2022-08-25T07:37:38.348Z,27.97
2022-08-25T07:40:07.982Z,28.21
2022-08-25T07:42:35.997Z,28.48
2022-08-25T07:45:05.427Z,28.52
2022-08-25T07:47:33.845Z,28.72
2022-08-25T07:50:00.246Z,28.87
2022-08-25T07:52:26.722Z,28.87
2022-08-25T07:54:54.219Z,28.82
2022-08-25T07:57:22.236Z,28.88
2022-08-25T07:59:48.730Z,28.96
2022-08-25T08:02:19.383Z,29.26
2022-08-25T08:04:51.034Z,29.42
2022-08-25T08:07:19.812Z,29.65
2022-08-25T08:09:50.587Z,29.91
2022-08-25T08:12:23.473Z,29.74
2022-08-25T08:14:50.994Z,29.50
2022-08-25T08:17:17.658Z,29.38
2022-08-25T08:19:45.306Z,29.42
2022-08-25T08:22:15.550Z,29.35
2022-08-25T08:24:54.892Z,29.57
2022-08-25T08:27:23.129Z,29.65
2022-08-25T08:29:49.714Z,29.87
2022-08-25T08:32:17.939Z,30.03
2022-08-25T08:34:46.183Z,29.62
2022-08-25T08:37:12.840Z,29.63
2022-08-25T08:39:40.047Z,29.58
2022-08-25T08:42:39.893Z,29.56
2022-08-25T08:45:24.647Z,29.66
2022-08-25T08:48:10.131Z,29.78
2022-08-25T08:50:50.330Z,29.88
2022-08-25T08:53:40.951Z,30.08
2022-08-25T08:56:17.094Z,30.41
2022-08-25T08:58:49.969Z,30.59
2022-08-25T09:01:23.665Z,30.38
2022-08-25T09:03:55.518Z,30.28
2022-08-25T09:06:32.341Z,30.24
2022-08-25T09:09:02.623Z,30.43
2022-08-25T09:11:54.920Z,30.82
2022-08-25T09:14:59.990Z,31.09
2022-08-25T09:17:39.990Z,31.31
2022-08-25T09:20:18.908Z,31.35
2022-08-25T09:23:16.844Z,30.99
2022-08-25T09:26:02.069Z,30.87
2022-08-25T09:28:40.904Z,31.08
2022-08-25T09:31:18.744Z,31.05
2022-08-25T09:33:45.819Z,31.09
2022-08-25T09:36:13.801Z,31.11
2022-08-25T09:38:41.208Z,31.29
2022-08-25T09:41:08.926Z,31.55
2022-08-25T09:43:37.966Z,32.21
2022-08-25T09:46:24.027Z,32.92
2022-08-25T09:48:59.414Z,32.43
2022-08-25T09:51:28.484Z,32.72
2022-08-25T09:53:57.207Z,32.72
2022-08-25T09:56:27.516Z,32.32
2022-08-25T09:58:58.163Z,32.20
2022-08-25T10:01:28.916Z,31.85
2022-08-25T10:04:04.997Z,31.72
2022-08-25T10:06:42.558Z,32.39
2022-08-25T10:09:09.250Z,32.88
2022-08-25T10:11:45.269Z,33.25
2022-08-25T10:14:22.096Z,33.14
2022-08-25T10:16:49.321Z,33.66
2022-08-25T10:19:21.861Z,33.45
2022-08-25T10:22:03.648Z,32.85
2022-08-25T10:24:31.363Z,32.49
2022-08-25T10:27:07.005Z,32.49
2022-08-25T10:29:57.801Z,32.54
2022-08-25T10:32:27.983Z,33.17
2022-08-25T10:34:56.513Z,33.72
2022-08-25T10:37:42.422Z,33.22
2022-08-25T10:40:12.833Z,32.94
2022-08-25T10:43:23.839Z,32.93
2022-08-25T10:45:56.850Z,33.47
2022-08-25T10:48:38.045Z,33.47
2022-08-25T10:51:29.729Z,33.65
2022-08-25T10:53:56.265Z,34.14
2022-08-25T10:56:28.740Z,34.37
2022-08-25T10:59:28.677Z,34.23
2022-08-25T11:02:33.750Z,33.98
2022-08-25T11:05:08.489Z,33.80
2022-08-25T11:07:39.416Z,33.61
2022-08-25T11:10:13.706Z,33.71
2022-08-25T11:12:45.979Z,34.22
2022-08-25T11:15:23.058Z,34.73
2022-08-25T11:17:55.280Z,34.63
2022-08-25T11:20:27.339Z,34.69
2022-08-25T11:23:09.187Z,35.26
2022-08-25T11:25:42.759Z,35.22
2022-08-25T11:28:31.113Z,34.53
2022-08-25T11:30:59.555Z,33.86
2022-08-25T11:33:26.683Z,33.86
2022-08-25T11:36:03.796Z,34.28
2022-08-25T11:38:59.978Z,34.51
2022-08-25T11:41:54.346Z,34.41
2022-08-25T11:44:53.349Z,34.28
2022-08-25T11:47:54.743Z,33.89
2022-08-25T11:50:59.600Z,33.85
2022-08-25T11:53:32.248Z,33.62
2022-08-25T11:56:06.020Z,33.77
2022-08-25T11:58:37.191Z,33.53
2022-08-25T12:01:05.061Z,33.56
2022-08-25T12:03:34.430Z,33.64
2022-08-25T12:06:23.100Z,34.55
2022-08-25T12:08:57.627Z,35.37
2022-08-25T12:11:43.637Z,35.10
2022-08-25T12:14:22.202Z,35.10
2022-08-25T12:16:51.836Z,35.11
2022-08-25T12:19:36.760Z,35.13
2022-08-25T12:22:04.472Z,35.48
2022-08-25T12:24:47.778Z,35.56
2022-08-25T12:27:52.170Z,35.93
2022-08-25T12:30:32.565Z,36.13
2022-08-25T12:33:08.058Z,35.84
2022-08-25T12:35:55.498Z,35.19
2022-08-25T12:38:50.846Z,35.13
2022-08-25T12:41:26.440Z,35.07
2022-08-25T12:43:54.683Z,34.58
2022-08-25T12:46:21.083Z,34.43
2022-08-25T12:48:58.632Z,34.18
2022-08-25T12:51:27.395Z,34.13
2022-08-25T12:54:15.883Z,34.15
2022-08-25T12:56:50.151Z,34.14
2022-08-25T12:59:21.815Z,34.15
2022-08-25T13:02:15.581Z,33.82
2022-08-25T13:04:55.505Z,33.87
2022-08-25T13:07:35.432Z,34.08
2022-08-25T13:10:16.150Z,34.56
2022-08-25T13:13:00.799Z,34.94
2022-08-25T13:15:46.914Z,34.82
2022-08-25T13:18:14.667Z,34.73
2022-08-25T13:20:44.252Z,34.41
2022-08-25T13:23:12.788Z,34.07
2022-08-25T13:25:48.064Z,33.73
2022-08-25T13:28:25.897Z,33.26
2022-08-25T13:31:16.883Z,33.43
2022-08-25T13:34:02.308Z,33.63
2022-08-25T13:36:54.330Z,33.84
2022-08-25T13:39:52.860Z,33.90
2022-08-25T13:42:17.504Z,33.49
2022-08-25T13:44:51.641Z,33.60
2022-08-25T13:47:44.988Z,33.42
2022-08-25T13:50:26.934Z,33.19
2022-08-25T13:53:02.351Z,33.60
2022-08-25T13:55:38.243Z,33.64
2022-08-25T13:58:24.591Z,33.64
2022-08-25T14:01:48.802Z,33.76
2022-08-25T14:04:21.604Z,34.50
2022-08-25T14:06:48.629Z,34.85
2022-08-25T14:09:18.320Z,34.98
2022-08-25T14:11:58.461Z,35.19
2022-08-25T14:14:24.838Z,34.95
2022-08-25T14:17:12.030Z,35.29
2022-08-25T14:19:48.902Z,35.19
2022-08-25T14:22:15.851Z,35.42
2022-08-25T14:24:42.476Z,35.52
2022-08-25T14:27:08.891Z,35.65
2022-08-25T14:29:41.257Z,35.55
2022-08-25T14:32:07.913Z,35.27
2022-08-25T14:34:37.225Z,35.36
2022-08-25T14:37:19.313Z,35.20
2022-08-25T14:39:46.267Z,35.21
2022-08-25T14:42:13.539Z,35.40
2022-08-25T14:44:40.107Z,35.47
2022-08-25T14:47:07.568Z,35.34
2022-08-25T14:49:36.986Z,34.93
2022-08-25T14:52:10.562Z,35.08
2022-08-25T14:54:39.369Z,34.72
2022-08-25T14:57:08.466Z,34.08
2022-08-25T14:59:35.405Z,34.11
2022-08-25T15:02:02.020Z,34.30
2022-08-25T15:04:29.239Z,34.57
2022-08-25T15:06:57.650Z,34.80
2022-08-25T15:09:24.955Z,34.90
2022-08-25T15:11:59.723Z,34.88
2022-08-25T15:14:28.580Z,34.81
2022-08-25T15:16:59.426Z,34.38
2022-08-25T15:19:27.086Z,34.16
2022-08-25T15:21:54.366Z,34.11
2022-08-25T15:24:25.677Z,34.14
2022-08-25T15:26:55.819Z,34.09
2022-08-25T15:29:26.175Z,34.11
2022-08-25T15:31:53.064Z,34.42
2022-08-25T15:34:19.566Z,34.38
2022-08-25T15:36:46.816Z,34.27
2022-08-25T15:39:13.991Z,34.28
2022-08-25T15:41:40.579Z,34.00
2022-08-25T15:44:11.409Z,34.08
2022-08-25T15:46:41.594Z,33.97
2022-08-25T15:49:08.154Z,33.86
2022-08-25T15:51:34.787Z,33.88
2022-08-25T15:54:01.216Z,33.56
2022-08-25T15:56:27.637Z,33.62
2022-08-25T15:58:54.272Z,33.61
2022-08-25T16:01:26.183Z,33.81
2022-08-25T16:03:53.256Z,33.71
2022-08-25T16:06:19.771Z,33.63
2022-08-25T16:08:46.392Z,33.72
2022-08-25T16:11:18.805Z,33.68
2022-08-25T16:13:49.012Z,33.87
2022-08-25T16:16:17.729Z,33.94
2022-08-25T16:18:44.997Z,33.98
2022-08-25T16:21:14.247Z,33.89
2022-08-25T16:23:41.076Z,33.98
2022-08-25T16:26:10.328Z,33.96
2022-08-25T16:28:40.960Z,33.98
2022-08-25T16:31:12.450Z,33.84
2022-08-25T16:33:39.719Z,33.82
2022-08-25T16:36:14.766Z,33.51
2022-08-25T16:38:42.108Z,33.57
2022-08-25T16:41:21.222Z,33.63
2022-08-25T16:43:47.917Z,33.71
2022-08-25T16:46:16.482Z,33.75
2022-08-25T16:48:44.088Z,33.62
2022-08-25T16:51:13.819Z,33.63
2022-08-25T16:53:59.718Z,33.73
2022-08-25T16:56:27.603Z,33.59
2022-08-25T16:58:55.343Z,33.56
2022-08-25T17:01:24.920Z,33.53
2022-08-25T17:03:53.395Z,33.50
2022-08-25T17:06:20.634Z,33.43
2022-08-25T17:08:49.490Z,33.43
2022-08-25T17:11:21.211Z,33.55
2022-08-25T17:13:50.107Z,33.57
2022-08-25T17:16:17.219Z,33.56
2022-08-25T17:18:47.861Z,33.50
2022-08-25T17:21:24.122Z,33.42
2022-08-25T17:23:51.314Z,33.41
2022-08-25T17:26:18.139Z,33.38
2022-08-25T17:28:44.705Z,33.34
2022-08-25T17:31:12.554Z,33.23
2022-08-25T17:33:39.085Z,32.90
2022-08-25T17:36:06.993Z,32.84
2022-08-25T17:38:34.037Z,32.72
2022-08-25T17:41:06.625Z,32.61
2022-08-25T17:43:34.948Z,32.47
2022-08-25T17:46:05.111Z,32.36
2022-08-25T17:48:33.097Z,32.22
2022-08-25T17:51:00.580Z,31.97
2022-08-25T17:53:27.890Z,31.82
2022-08-25T17:56:01.005Z,31.61
2022-08-25T17:58:28.881Z,31.45
2022-08-25T18:00:56.263Z,31.30
2022-08-25T18:03:22.727Z,31.31
2022-08-25T18:05:50.310Z,31.25
2022-08-25T18:08:18.761Z,31.16
2022-08-25T18:10:47.042Z,31.06
2022-08-25T18:13:13.931Z,30.91
2022-08-25T18:15:42.580Z,30.88
2022-08-25T18:18:09.718Z,30.83
2022-08-25T18:20:39.007Z,30.72
2022-08-25T18:23:09.416Z,30.64
2022-08-25T18:25:36.535Z,30.48
2022-08-25T18:28:08.817Z,30.41
2022-08-25T18:30:35.973Z,30.30
2022-08-25T18:33:02.427Z,30.13
2022-08-25T18:35:29.328Z,30.08
2022-08-25T18:38:14.405Z,30.03
2022-08-25T18:40:41.272Z,29.92
2022-08-25T18:43:11.754Z,29.82
2022-08-25T18:45:49.196Z,29.72
2022-08-25T18:48:17.254Z,29.71
2022-08-25T18:50:46.810Z,29.58
2022-08-25T18:53:18.077Z,29.48
2022-08-25T18:55:58.065Z,29.43
2022-08-25T18:58:25.410Z,29.41
2022-08-25T19:00:52.314Z,29.41
2022-08-25T19:03:22.242Z,29.36
2022-08-25T19:05:57.742Z,29.29
2022-08-25T19:08:24.855Z,29.20
2022-08-25T19:10:52.849Z,29.18
2022-08-25T19:13:19.431Z,29.13
2022-08-25T19:15:49.556Z,29.08
2022-08-25T19:18:17.567Z,29.19
2022-08-25T19:20:44.769Z,29.05
2022-08-25T19:23:12.789Z,28.91
2022-08-25T19:25:41.648Z,28.88
2022-08-25T19:28:11.999Z,28.84
2022-08-25T19:30:39.540Z,28.82
2022-08-25T19:33:16.288Z,28.85
2022-08-25T19:36:02.992Z,28.79
2022-08-25T19:38:34.222Z,28.72
2022-08-25T19:41:02.575Z,28.62
2022-08-25T19:43:35.979Z,28.58
2022-08-25T19:46:02.588Z,28.56
2022-08-25T19:48:29.396Z,28.57
2022-08-25T19:50:55.968Z,28.47
2022-08-25T19:53:22.799Z,28.37
2022-08-25T19:55:49.244Z,28.28
2022-08-25T19:58:15.927Z,28.29
2022-08-25T20:00:47.105Z,28.14
2022-08-25T20:03:17.356Z,28.07
2022-08-25T20:05:43.829Z,27.93
2022-08-25T20:08:10.286Z,27.86
2022-08-25T20:10:41.774Z,27.83
2022-08-25T20:13:09.644Z,27.88
2022-08-25T20:15:39.035Z,27.92
2022-08-25T20:18:06.035Z,27.77
2022-08-25T20:20:35.449Z,27.66
2022-08-25T20:23:20.663Z,27.67
2022-08-25T20:25:49.193Z,27.63
2022-08-25T20:28:18.956Z,27.62
2022-08-25T20:30:45.785Z,27.55
2022-08-25T20:33:12.586Z,27.55
2022-08-25T20:35:39.034Z,27.43
2022-08-25T20:38:07.561Z,27.43
2022-08-25T20:40:34.473Z,27.35
2022-08-25T20:43:04.334Z,27.33
2022-08-25T20:45:30.848Z,27.21
2022-08-25T20:47:57.395Z,27.14
2022-08-25T20:50:24.050Z,27.07
2022-08-25T20:52:51.433Z,26.96
2022-08-25T20:55:19.072Z,26.91
2022-08-25T20:57:46.051Z,26.94
2022-08-25T21:00:12.904Z,26.86
2022-08-25T21:02:39.415Z,26.69
2022-08-25T21:05:06.622Z,26.67
2022-08-25T21:07:35.717Z,26.68
2022-08-25T21:10:05.588Z,26.70
2022-08-25T21:12:32.182Z,26.65
2022-08-25T21:14:58.621Z,26.65
2022-08-25T21:17:25.040Z,26.68
2022-08-25T21:19:51.786Z,26.66
2022-08-25T21:22:18.215Z,26.73
2022-08-25T21:24:45.098Z,26.78
2022-08-25T21:27:11.574Z,26.64
2022-08-25T21:29:38.352Z,26.59
2022-08-25T21:32:11.257Z,26.62
2022-08-25T21:34:37.820Z,26.69
2022-08-25T21:37:05.307Z,26.64
2022-08-25T21:39:33.104Z,26.66
2022-08-25T21:42:00.390Z,26.64
2022-08-25T21:44:28.623Z,26.64
2022-08-25T21:46:55.292Z,26.56
2022-08-25T21:49:23.283Z,26.50
2022-08-25T21:51:59.232Z,26.43
2022-08-25T21:54:27.302Z,26.46
2022-08-25T21:56:59.413Z,26.63
2022-08-25T21:59:28.878Z,26.67
2022-08-25T22:01:57.482Z,26.68
2022-08-25T22:04:24.813Z,26.79
2022-08-25T22:06:51.373Z,26.83
2022-08-25T22:09:17.852Z,26.86
2022-08-25T22:11:46.119Z,26.97
2022-08-25T22:14:13.990Z,26.99
2022-08-25T22:16:41.110Z,27.00
2022-08-25T22:19:09.291Z,26.94
2022-08-25T22:21:37.099Z,26.92
2022-08-25T22:24:05.439Z,26.90
2022-08-25T22:26:32.806Z,26.81
2022-08-25T22:28:59.614Z,26.83
2022-08-25T22:31:27.603Z,26.85
2022-08-25T22:33:55.446Z,26.74
2022-08-25T22:36:30.801Z,26.68
2022-08-25T22:38:57.711Z,26.60
2022-08-25T22:41:26.923Z,26.59
2022-08-25T22:43:55.519Z,26.54
2022-08-25T22:46:23.151Z,26.41
2022-08-25T22:48:50.337Z,26.36
2022-08-25T22:51:20.977Z,26.37
2022-08-25T22:53:49.063Z,26.27
2022-08-25T22:56:17.452Z,26.18
2022-08-25T22:58:44.201Z,26.17
2022-08-25T23:01:20.133Z,26.24
2022-08-25T23:03:47.674Z,26.14
2022-08-25T23:06:24.467Z,26.09
2022-08-25T23:08:53.462Z,26.08
2022-08-25T23:11:21.389Z,26.06
2022-08-25T23:13:48.161Z,25.98
2022-08-25T23:16:15.497Z,25.93
2022-08-25T23:18:43.948Z,25.84
2022-08-25T23:21:29.788Z,25.82
2022-08-25T23:24:01.728Z,25.78
2022-08-25T23:26:28.722Z,25.75
2022-08-25T23:28:55.621Z,25.63
2022-08-25T23:31:22.112Z,25.62
2022-08-25T23:33:50.813Z,25.54
2022-08-25T23:36:20.596Z,25.48
2022-08-25T23:38:51.785Z,25.53
2022-08-25T23:41:21.622Z,25.57
2022-08-25T23:43:49.281Z,25.51
2022-08-25T23:46:17.164Z,25.47
2022-08-25T23:48:43.963Z,25.47
2022-08-25T23:51:10.897Z,25.44
2022-08-25T23:53:37.614Z,25.40
2022-08-25T23:56:05.558Z,25.47
2022-08-25T23:58:32.481Z,25.51
